Terminal Aerodrome Forecast
Issued by NWS

Home | Current Version | Previous Version | Text Only | Print | Product List | Glossary On
Versions: 1 2 3 4 5 6 7 8 9 10 11 12 13 14 15 16 17 18 19 20 21 22
360
FTUS43 KDLH 261732
TAFBRD
TAF
KBRD 261732Z 2618/2718 01011KT 6SM -SN OVC015
     FM262100 01010KT P6SM OVC015
     FM270100 36008KT P6SM OVC015
     FM271000 34009KT P6SM OVC020=

USA.gov is the U.S. government's official web portal to all federal, state and local government web resources and services.